Time;durP1;ratioP1;P1;durP2;ratioP2;P2;SDS_P1;SDS_P2;PMS_P1;PMS_P2;Temp;Humidity;BMP_temperature;BMP_pressure;BME280_temperature;BME280_humidity;BME280_pressure;Samples;Min_cycle;Max_cycle;Signal;HPM_P1;HPM_P2
2022/11/17 00:00:03;;;;;;;60.60;41.00;;;;;;;8.34;100.00;99432.28;5091131;28;20031;-69
2022/11/17 00:02:29;;;;;;;58.47;40.45;;;;;;;8.51;100.00;99453.34;5091208;28;20023;-69
2022/11/17 00:04:54;;;;;;;58.00;38.70;;;;;;;8.49;100.00;99450.75;5091120;28;20032;-69
2022/11/17 00:07:19;;;;;;;59.40;40.08;;;;;;;8.40;100.00;99437.59;5087676;28;20112;-68
2022/11/17 00:09:45;;;;;;;60.58;40.90;;;;;;;8.51;100.00;99453.34;5092359;28;20028;-68
2022/11/17 00:14:54;;;;;;;57.60;39.42;;;;;;;8.36;100.00;99397.16;5091927;28;20046;-67
2022/11/17 00:17:19;;;;;;;58.28;39.75;;;;;;;8.40;100.00;99401.59;5091967;28;20461;-68
2022/11/17 00:22:31;;;;;;;66.32;43.72;;;;;;;8.54;100.00;99410.59;5091642;28;20059;-68
2022/11/17 00:24:57;;;;;;;69.47;43.10;;;;;;;8.66;100.00;99434.91;5091695;28;20028;-67
2022/11/17 00:27:22;;;;;;;62.97;42.13;;;;;;;8.69;100.00;99440.16;5079240;28;20039;-67
2022/11/17 00:29:48;;;;;;;62.25;41.05;;;;;;;8.71;100.00;99444.50;5071006;28;20028;-68
2022/11/17 00:34:59;;;;;;;64.18;40.40;;;;;;;8.68;100.00;99443.56;5071025;28;20043;-68
2022/11/17 00:37:26;;;;;;;63.78;42.28;;;;;;;8.59;100.00;99433.88;5070861;28;20024;-67
2022/11/17 00:39:52;;;;;;;59.88;39.95;;;;;;;8.60;100.00;99447.59;5069590;28;20111;-68
2022/11/17 00:42:17;;;;;;;61.25;42.25;;;;;;;8.62;100.00;99425.38;5061867;28;20038;-68
2022/11/17 00:44:43;;;;;;;62.35;42.13;;;;;;;8.44;100.00;99390.56;5072957;28;20452;-68
2022/11/17 00:47:08;;;;;;;62.00;42.13;;;;;;;8.70;100.00;99416.16;5090856;28;20440;-67
2022/11/17 00:49:35;;;;;;;60.95;41.50;;;;;;;8.76;100.00;99420.59;5091198;28;20103;-68
2022/11/17 00:52:01;;;;;;;59.20;39.72;;;;;;;8.80;100.00;99422.41;5090913;28;20024;-67
2022/11/17 00:54:26;;;;;;;59.33;42.08;;;;;;;8.79;100.00;99415.56;5091054;28;20031;-68
2022/11/17 00:56:52;;;;;;;61.08;41.60;;;;;;;8.79;100.00;99411.25;5090805;28;20066;-67
2022/11/17 00:59:17;;;;;;;60.10;41.35;;;;;;;8.77;100.00;99394.91;5090895;28;20762;-68
2022/11/17 01:01:44;;;;;;;63.80;42.20;;;;;;;8.87;100.00;99396.91;5072311;28;20460;-67
2022/11/17 01:04:12;;;;;;;59.28;42.22;;;;;;;8.96;100.00;99392.81;5090940;28;20024;-68
2022/11/17 01:06:39;;;;;;;58.25;39.65;;;;;;;9.02;100.00;99390.41;5090759;28;20036;-68
2022/11/17 01:09:10;;;;;;;62.17;39.92;;;;;;;9.05;100.00;99399.06;5090697;28;20098;-67
2022/11/17 01:11:35;;;;;;;61.25;39.95;;;;;;;9.02;100.00;99393.88;5089850;28;20024;-67
2022/11/17 01:14:01;;;;;;;60.33;42.13;;;;;;;8.97;100.00;99385.16;5070553;28;20093;-68
2022/11/17 01:16:28;;;;;;;58.95;39.85;;;;;;;8.93;100.00;99385.03;5069672;28;20031;-68
2022/11/17 01:18:53;;;;;;;61.17;41.75;;;;;;;8.96;100.00;99383.41;5087514;28;20069;-68
2022/11/17 01:21:22;;;;;;;61.92;41.78;;;;;;;9.03;100.00;99366.41;5090545;28;20056;-68
2022/11/17 01:23:50;;;;;;;65.53;42.63;;;;;;;8.85;100.00;99335.94;5090549;28;20024;-68
2022/11/17 01:26:24;;;;;;;60.80;40.65;;;;;;;8.95;100.00;99358.50;5056091;28;20044;-68
2022/11/17 01:28:51;;;;;;;61.65;43.03;;;;;;;9.01;100.00;99381.81;5072745;28;20033;-68
2022/11/17 01:31:25;;;;;;;61.05;42.30;;;;;;;8.89;100.00;99374.63;5069911;28;20039;-68
2022/11/17 01:33:51;;;;;;;64.25;40.70;;;;;;;8.89;100.00;99371.19;5069479;28;20704;-68
2022/11/17 01:36:19;;;;;;;56.22;40.05;;;;;;;8.69;100.00;99332.94;5069852;28;20036;-68
2022/11/17 01:38:45;;;;;;;59.75;40.88;;;;;;;8.86;100.00;99358.25;5070048;28;20035;-68
2022/11/17 01:41:24;;;;;;;57.95;39.63;;;;;;;8.91;100.00;99361.84;5070037;28;20028;-68
2022/11/17 01:43:51;;;;;;;57.97;40.08;;;;;;;8.87;100.00;99352.25;5069881;28;20111;-68
2022/11/17 01:46:17;;;;;;;53.42;37.75;;;;;;;8.76;100.00;99343.41;5070068;28;20024;-68
2022/11/17 01:48:43;;;;;;;60.30;38.60;;;;;;;8.71;100.00;99335.56;5069943;28;20035;-68
2022/11/17 01:51:12;;;;;;;58.35;40.55;;;;;;;8.69;100.00;99334.66;5069918;28;20466;-68
2022/11/17 01:53:38;;;;;;;61.70;39.83;;;;;;;8.55;100.00;99334.31;5069457;28;20025;-68
2022/11/17 01:56:09;;;;;;;54.08;38.92;;;;;;;8.40;100.00;99339.88;5085127;28;20030;-68
2022/11/17 01:58:44;;;;;;;59.53;40.08;;;;;;;8.22;100.00;99330.81;5089933;28;20039;-68
2022/11/17 02:01:09;;;;;;;61.45;39.63;;;;;;;8.16;100.00;99329.75;5089508;28;20071;-68
2022/11/17 02:03:35;;;;;;;63.85;40.67;;;;;;;8.16;100.00;99332.31;5090193;28;20060;-68
2022/11/17 02:06:07;;;;;;;63.80;40.85;;;;;;;8.14;100.00;99336.53;5090013;28;20111;-68
2022/11/17 02:08:35;;;;;;;64.00;40.85;;;;;;;8.15;100.00;99328.91;5089653;28;20104;-68
2022/11/17 02:11:05;;;;;;;62.75;41.47;;;;;;;8.18;100.00;99330.69;5089656;28;20032;-68
2022/11/17 02:13:32;;;;;;;60.95;41.40;;;;;;;8.20;100.00;99309.31;5072995;28;20386;-68
2022/11/17 02:15:58;;;;;;;62.53;40.63;;;;;;;8.34;100.00;99324.28;5069594;28;20028;-68
2022/11/17 02:18:23;;;;;;;64.43;40.72;;;;;;;8.12;100.00;99274.81;5069303;28;20074;-68
2022/11/17 02:21:09;;;;;;;57.92;38.40;;;;;;;8.38;100.00;99326.09;5069336;28;20086;-68
2022/11/17 02:23:58;;;;;;;58.42;38.92;;;;;;;8.38;100.00;99315.78;5069579;28;20022;-68
2022/11/17 02:26:42;;;;;;;59.90;39.47;;;;;;;8.42;100.00;99326.22;5078890;28;20028;-68
2022/11/17 02:29:13;;;;;;;55.83;39.20;;;;;;;8.23;100.00;99293.97;5089581;28;20016;-68
2022/11/17 02:31:52;;;;;;;61.10;40.10;;;;;;;8.41;100.00;99308.16;5070447;28;20039;-68
2022/11/17 02:34:24;;;;;;;59.47;39.50;;;;;;;8.40;100.00;99316.72;5033822;28;20041;-68
2022/11/17 02:37:01;;;;;;;60.13;39.03;;;;;;;8.48;100.00;99311.81;5069717;28;20062;-68
2022/11/17 02:39:44;;;;;;;57.38;39.10;;;;;;;8.44;100.00;99310.81;5069371;28;20032;-68
2022/11/17 02:44:02;;;;;;;58.72;38.78;;;;;;;8.44;100.00;99308.25;5069176;28;20712;-68
2022/11/17 02:45:19;;;;;;;62.30;40.50;;;;;;;8.29;100.00;99305.25;5069820;28;20085;-68
2022/11/17 02:47:47;;;;;;;58.53;39.70;;;;;;;8.17;100.00;99311.78;5072084;28;20031;-68
2022/11/17 02:50:13;;;;;;;62.03;41.00;;;;;;;8.18;100.00;99312.69;5093310;28;20031;-68
2022/11/17 02:52:39;;;;;;;56.67;38.22;;;;;;;7.98;100.00;99271.00;5093321;28;20028;-68
2022/11/17 02:55:07;;;;;;;63.95;41.55;;;;;;;8.16;100.00;99293.75;5093042;28;20494;-68
2022/11/17 02:57:37;;;;;;;67.05;42.00;;;;;;;8.15;100.00;99299.72;5093199;28;20466;-68
2022/11/17 03:00:08;;;;;;;61.75;41.00;;;;;;;8.13;100.00;99298.84;5093191;28;20020;-68
2022/11/17 03:02:59;;;;;;;58.35;39.67;;;;;;;8.14;100.00;99295.41;5092020;28;20031;-69
2022/11/17 03:06:06;;;;;;;57.90;38.25;;;;;;;8.15;100.00;99292.91;5072702;28;20486;-68
2022/11/17 03:08:53;;;;;;;57.95;39.05;;;;;;;7.87;100.00;99250.13;5030359;28;20045;-68
2022/11/17 03:11:28;;;;;;;57.33;39.25;;;;;;;8.15;100.00;99297.16;5030062;28;20177;-68
2022/11/17 03:13:59;;;;;;;58.42;37.58;;;;;;;8.02;100.00;99268.53;5030187;28;20030;-68
2022/11/17 03:16:36;;;;;;;58.50;38.08;;;;;;;8.21;100.00;99294.75;5029978;28;20029;-68
2022/11/17 03:19:05;;;;;;;57.08;38.53;;;;;;;8.21;100.00;99300.78;5029932;28;20107;-68
2022/11/17 03:21:49;;;;;;;56.60;37.92;;;;;;;8.28;100.00;99298.38;5029553;28;20060;-68
2022/11/17 03:24:27;;;;;;;60.15;39.30;;;;;;;8.26;100.00;99281.22;5031541;28;20037;-68
2022/11/17 03:26:57;;;;;;;55.97;36.65;;;;;;;8.23;100.00;99273.41;5031473;28;20109;-69
2022/11/17 03:29:25;;;;;;;;;;;;;;;8.23;100.00;99269.97;5030929;28;20091;-68
2022/11/17 03:31:56;;;;;;;56.00;37.38;;;;;;;8.08;100.00;99278.13;5029649;28;19916;-68
2022/11/17 03:34:26;;;;;;;63.50;39.10;;;;;;;8.09;100.00;99272.16;5029969;28;20119;-68
2022/11/17 03:36:57;;;;;;;57.88;37.83;;;;;;;8.07;100.00;99260.97;5029772;28;20127;-68
2022/11/17 03:39:30;;;;;;;59.97;39.95;;;;;;;8.18;100.00;99256.97;5029491;28;20033;-68
2022/11/17 03:42:17;;;;;;;58.55;36.22;;;;;;;8.20;100.00;99234.78;4997471;28;20845;-68
2022/11/17 03:44:46;;;;;;;55.47;36.58;;;;;;;8.38;100.00;99264.38;5050274;28;20107;-68
2022/11/17 03:47:14;;;;;;;55.63;36.50;;;;;;;8.42;100.00;99272.22;5072147;28;20028;-68
2022/11/17 03:49:51;;;;;;;55.88;38.03;;;;;;;8.32;100.00;99271.91;5072150;28;20086;-68
2022/11/17 03:52:17;;;;;;;54.38;36.47;;;;;;;8.31;100.00;99262.47;5072292;28;20424;-68
2022/11/17 03:54:43;;;;;;;62.53;38.13;;;;;;;8.41;100.00;99261.84;5071421;28;20017;-68
2022/11/17 03:57:47;;;;;;;54.25;36.40;;;;;;;8.52;100.00;99275.94;5071615;28;20036;-68
2022/11/17 04:00:15;;;;;;;55.40;35.83;;;;;;;8.18;100.00;99192.72;5078419;28;20032;-68
2022/11/17 04:02:42;;;;;;;55.75;37.70;;;;;;;8.65;100.00;99253.94;5091979;28;20051;-68
2022/11/17 04:05:09;;;;;;;55.65;37.05;;;;;;;8.70;100.00;99254.06;5091389;28;20024;-68
2022/11/17 04:07:41;;;;;;;56.08;36.78;;;;;;;8.76;100.00;99253.34;5092024;28;20023;-68
2022/11/17 04:10:09;;;;;;;64.65;37.47;;;;;;;8.79;100.00;99262.00;5091715;28;20052;-68
2022/11/17 04:18:03;;;;;;;66.97;38.50;;;;;;;8.48;100.00;99178.91;5071802;28;20170;-68
2022/11/17 04:20:34;;;;;;;57.17;37.05;;;;;;;8.91;100.00;99246.00;5071775;28;20695;-68
2022/11/17 04:23:10;;;;;;;54.30;36.88;;;;;;;8.90;100.00;99246.84;5070216;28;20055;-68
2022/11/17 04:28:37;;;;;;;54.53;35.95;;;;;;;8.92;100.00;99265.72;5071952;28;20062;-68
2022/11/17 04:31:04;;;;;;;55.85;36.63;;;;;;;8.95;100.00;99264.94;5071733;28;20036;-68
2022/11/17 04:33:30;;;;;;;55.38;36.83;;;;;;;8.86;100.00;99248.47;5035967;28;20123;-68
2022/11/17 04:35:56;;;;;;;55.40;35.67;;;;;;;8.86;100.00;99274.19;5070368;28;20706;-68
2022/11/17 04:38:22;;;;;;;59.88;36.85;;;;;;;8.80;100.00;99273.16;5071687;28;20025;-68
2022/11/17 04:43:31;;;;;;;54.90;34.95;;;;;;;8.68;100.00;99276.31;5071156;28;20039;-68
2022/11/17 04:46:00;;;;;;;54.50;35.40;;;;;;;8.59;100.00;99261.50;5075696;28;20032;-68
2022/11/17 04:48:26;;;;;;;53.55;34.90;;;;;;;8.70;100.00;99260.06;5091018;28;20032;-68
2022/11/17 04:50:53;;;;;;;53.85;35.20;;;;;;;8.71;100.00;99263.50;5088057;28;20497;-68
2022/11/17 04:53:19;;;;;;;58.67;38.25;;;;;;;8.75;100.00;99260.19;5088066;28;20398;-68
2022/11/17 04:55:44;;;;;;;53.72;36.42;;;;;;;8.76;100.00;99263.63;5090843;28;20028;-69
2022/11/17 04:58:09;;;;;;;56.58;34.63;;;;;;;8.73;100.00;99248.97;5037626;28;20047;-69
2022/11/17 05:00:35;;;;;;;52.13;35.60;;;;;;;8.80;100.00;99253.44;5088583;28;20020;-69
2022/11/17 05:03:00;;;;;;;52.80;35.05;;;;;;;8.79;100.00;99249.13;5091252;28;20024;-70
2022/11/17 05:05:26;;;;;;;52.22;36.65;;;;;;;8.62;100.00;99214.41;5091189;28;20035;-68
2022/11/17 05:07:51;;;;;;;63.63;38.90;;;;;;;8.73;100.00;99242.16;5090955;28;20016;-68
2022/11/17 05:13:20;;;;;;;59.28;41.30;;;;;;;8.78;100.00;99249.09;5090344;28;20482;-69
2022/11/17 05:18:31;;;;;;;53.08;36.78;;;;;;;8.69;100.00;99239.47;5090741;28;20478;-69
2022/11/17 05:21:04;;;;;;;65.22;37.63;;;;;;;8.68;100.00;99236.00;5087550;28;20044;-69
2022/11/17 05:26:14;;;;;;;65.68;38.03;;;;;;;8.77;100.00;99243.06;5070894;28;20131;-68
2022/11/17 05:28:39;;;;;;;61.60;37.90;;;;;;;8.76;100.00;99240.47;5069942;28;20107;-69
2022/11/17 05:31:06;;;;;;;61.53;38.72;;;;;;;8.16;100.00;99132.69;5070293;28;20054;-69
2022/11/17 05:33:31;;;;;;;64.20;37.92;;;;;;;8.57;100.00;99184.31;5069952;28;20481;-69
2022/11/17 05:35:57;;;;;;;67.28;39.08;;;;;;;8.84;100.00;99219.22;5069960;28;20056;-69
2022/11/17 05:38:22;;;;;;;58.08;36.35;;;;;;;8.70;100.00;99200.91;5070649;28;20027;-69
2022/11/17 05:40:48;;;;;;;61.28;38.05;;;;;;;8.75;100.00;99219.03;5070429;28;20031;-69
2022/11/17 05:43:13;;;;;;;61.90;38.20;;;;;;;8.84;100.00;99228.66;5070180;28;20103;-68
2022/11/17 05:45:41;;;;;;;55.83;37.88;;;;;;;8.82;100.00;99226.06;5070339;28;20116;-69
2022/11/17 05:48:06;;;;;;;59.20;37.10;;;;;;;8.73;100.00;99224.16;5069741;28;20090;-69
2022/11/17 05:50:32;;;;;;;62.88;38.70;;;;;;;8.68;100.00;99217.13;5070606;28;20037;-69
2022/11/17 05:52:58;;;;;;;61.33;37.35;;;;;;;8.69;100.00;99226.59;5070443;28;20039;-69
2022/11/17 05:55:23;;;;;;;58.38;38.22;;;;;;;8.73;100.00;99215.53;5070748;28;20031;-69
2022/11/17 05:57:50;;;;;;;64.65;44.85;;;;;;;8.71;100.00;99218.06;5069083;28;20032;-69
2022/11/17 06:00:16;;;;;;;59.22;39.28;;;;;;;8.80;100.00;99226.84;5070308;28;20028;-68
2022/11/17 06:02:46;;;;;;;60.65;40.45;;;;;;;8.85;100.00;99228.69;5070450;28;20631;-68
2022/11/17 06:05:12;;;;;;;57.58;38.35;;;;;;;8.87;100.00;99223.56;5070455;28;20205;-69
2022/11/17 06:07:38;;;;;;;56.92;38.85;;;;;;;8.89;100.00;99225.34;5070210;28;20526;-69
2022/11/17 06:10:04;;;;;;;57.42;38.92;;;;;;;8.89;100.00;99227.06;5070182;28;20037;-69
2022/11/17 06:12:29;;;;;;;57.35;37.88;;;;;;;8.84;100.00;99226.94;5070111;28;20029;-69
2022/11/17 06:14:54;;;;;;;53.75;36.58;;;;;;;8.80;100.00;99213.97;5070299;28;20035;-69
2022/11/17 06:17:27;;;;;;;67.97;46.30;;;;;;;8.92;100.00;99221.97;5070104;28;20039;-69
2022/11/17 06:20:02;;;;;;;57.00;39.45;;;;;;;8.98;100.00;99210.97;5070508;28;20052;-69
2022/11/17 06:22:29;;;;;;;59.00;38.05;;;;;;;9.02;100.00;99215.34;5090207;28;20063;-68
2022/11/17 06:24:55;;;;;;;59.00;40.30;;;;;;;9.02;100.00;99217.91;5094472;28;20032;-68
2022/11/17 06:27:21;;;;;;;57.20;40.08;;;;;;;9.07;100.00;99217.19;5094716;28;20024;-69
2022/11/17 06:29:47;;;;;;;62.22;40.80;;;;;;;9.13;100.00;99228.47;5058417;28;20063;-69
2022/11/17 06:32:13;;;;;;;58.75;40.03;;;;;;;9.10;100.00;99218.97;5094099;28;20918;-68
2022/11/17 06:34:40;;;;;;;59.80;39.33;;;;;;;9.19;100.00;99215.72;5094550;28;20028;-69
2022/11/17 06:37:05;;;;;;;63.40;41.97;;;;;;;9.25;100.00;99225.31;5094363;28;20020;-68
2022/11/17 06:39:30;;;;;;;58.47;40.17;;;;;;;9.25;100.00;99226.16;5094358;28;20485;-68
2022/11/17 06:41:56;;;;;;;55.95;40.63;;;;;;;8.99;100.00;99172.38;5094327;28;20032;-68
2022/11/17 06:44:21;;;;;;;57.50;39.28;;;;;;;9.33;100.00;99221.19;5094071;28;20032;-69
2022/11/17 06:46:47;;;;;;;113.25;76.88;;;;;;;9.34;100.00;99218.63;5093982;28;20063;-69
2022/11/17 06:49:12;;;;;;;67.55;44.88;;;;;;;9.35;100.00;99206.66;5094317;28;20028;-69
2022/11/17 06:51:37;;;;;;;67.60;44.35;;;;;;;9.50;100.00;99218.97;5094020;28;20032;-69
2022/11/17 06:54:04;;;;;;;62.95;42.83;;;;;;;9.59;100.00;99216.56;5094114;28;20405;-69
2022/11/17 06:56:29;;;;;;;64.90;42.90;;;;;;;9.50;100.00;99180.34;5092531;28;20486;-69
2022/11/17 06:58:58;;;;;;;63.10;42.67;;;;;;;9.34;100.00;99135.34;5094010;28;20030;-69
2022/11/17 07:01:24;;;;;;;73.35;53.30;;;;;;;9.65;100.00;99177.19;5093880;28;20535;-69
2022/11/17 07:03:49;;;;;;;70.72;47.97;;;;;;;9.90;100.00;99216.34;5093774;28;20115;-68
2022/11/17 07:06:15;;;;;;;64.55;43.50;;;;;;;9.87;100.00;99212.00;5093542;28;20474;-68
2022/11/17 07:08:40;;;;;;;59.33;41.85;;;;;;;9.91;100.00;99218.94;5093726;28;20119;-68
2022/11/17 07:11:10;;;;;;;59.05;39.97;;;;;;;9.93;100.00;99213.81;5093645;28;20052;-68
2022/11/17 07:13:36;;;;;;;57.70;38.85;;;;;;;9.95;100.00;99218.16;5093963;28;20469;-68
2022/11/17 07:16:12;;;;;;;58.80;39.50;;;;;;;9.93;100.00;99208.66;5094451;28;20073;-69
2022/11/17 07:18:43;;;;;;;58.97;39.22;;;;;;;9.95;100.00;99201.81;5093248;28;20550;-69
2022/11/17 07:21:12;;;;;;;61.35;40.97;;;;;;;9.81;100.00;99176.66;5093313;28;20059;-69
2022/11/17 07:23:39;;;;;;;;;;;;;;;9.92;100.00;99204.31;5093864;28;20039;-68
2022/11/17 07:26:05;;;;;;;69.43;41.80;;;;;;;9.92;100.00;99201.75;5093398;28;19911;-68
2022/11/17 07:28:32;;;;;;;59.08;39.70;;;;;;;9.94;100.00;99195.78;5093406;28;20470;-68
2022/11/17 07:31:02;;;;;;;60.53;39.45;;;;;;;9.94;100.00;99187.19;5093373;28;20170;-68
2022/11/17 07:33:27;;;;;;;63.40;40.50;;;;;;;10.08;100.00;99193.47;5092294;28;20092;-68
2022/11/17 07:35:54;;;;;;;58.28;39.17;;;;;;;10.19;100.00;99191.06;5093106;28;20119;-68
2022/11/17 07:38:20;;;;;;;57.25;39.90;;;;;;;10.26;100.00;99181.75;5092898;28;20020;-69
2022/11/17 07:40:45;;;;;;;64.50;41.65;;;;;;;10.42;100.00;99183.78;5093001;28;20020;-68
2022/11/17 07:43:11;;;;;;;58.55;40.05;;;;;;;10.59;100.00;99194.38;5093319;28;20043;-68
2022/11/17 07:45:36;;;;;;;58.47;39.17;;;;;;;10.71;100.00;99191.13;5093148;28;20038;-68
2022/11/17 07:48:04;;;;;;;59.30;40.45;;;;;;;10.80;100.00;99190.41;5092764;28;20039;-69
2022/11/17 07:50:30;;;;;;;65.85;43.45;;;;;;;10.90;100.00;99179.34;5092848;28;20455;-68
2022/11/17 07:52:58;;;;;;;66.03;46.30;;;;;;;10.97;100.00;99182.91;5092779;28;20020;-68
2022/11/17 07:55:24;;;;;;;59.75;41.67;;;;;;;11.04;100.00;99177.00;5092940;28;20034;-68
2022/11/17 07:57:56;;;;;;;55.33;40.65;;;;;;;11.12;100.00;99180.53;5092707;28;20394;-68
2022/11/17 08:00:22;;;;;;;58.90;39.35;;;;;;;11.15;100.00;99178.00;5092659;28;20035;-68
2022/11/17 08:02:48;;;;;;;60.78;42.40;;;;;;;11.13;100.00;99182.28;5092214;28;20032;-69
2022/11/17 08:05:16;;;;;;;59.72;39.83;;;;;;;11.19;100.00;99178.03;5074565;28;20030;-69
2022/11/17 08:07:45;;;;;;;50.97;36.72;;;;;;;11.29;100.00;99177.31;5092563;28;20112;-68
2022/11/17 08:10:12;;;;;;;53.60;35.80;;;;;;;11.35;100.00;99179.13;5092515;28;20028;-68
2022/11/17 08:12:37;;;;;;;54.38;38.80;;;;;;;11.12;100.00;99149.53;5092697;28;20032;-68
2022/11/17 08:15:03;;;;;;;50.78;38.33;;;;;;;11.39;100.00;99178.28;5074070;28;20033;-68
2022/11/17 08:17:30;;;;;;;58.65;41.30;;;;;;;11.34;100.00;99170.50;5092107;28;20095;-69
2022/11/17 08:19:56;;;;;;;60.10;43.25;;;;;;;11.38;100.00;99177.44;5092316;28;20034;-69
2022/11/17 08:22:21;;;;;;;58.53;42.47;;;;;;;11.39;100.00;99174.00;5055896;28;20052;-68
2022/11/17 08:24:47;;;;;;;65.45;43.38;;;;;;;11.40;100.00;99185.19;5092201;28;20020;-68
2022/11/17 08:27:12;;;;;;;55.80;37.88;;;;;;;11.46;100.00;99185.28;5092204;28;20055;-68
2022/11/17 08:29:38;;;;;;;54.40;36.90;;;;;;;11.34;100.00;99167.91;5091990;28;20048;-68
2022/11/17 08:32:03;;;;;;;54.50;36.40;;;;;;;11.58;100.00;99195.78;5092323;28;20386;-69
2022/11/17 08:34:29;;;;;;;51.78;34.28;;;;;;;11.60;100.00;99200.97;5092103;28;20443;-69
2022/11/17 08:36:55;;;;;;;50.20;35.42;;;;;;;11.59;100.00;99201.78;5091621;28;20032;-69
2022/11/17 08:39:21;;;;;;;48.90;34.83;;;;;;;11.54;100.00;99217.28;5091606;28;20020;-69
2022/11/17 08:41:46;;;;;;;50.50;33.90;;;;;;;11.48;100.00;99220.63;5092029;28;20035;-69
2022/11/17 08:44:11;;;;;;;47.70;34.15;;;;;;;11.41;100.00;99215.38;5091802;28;20027;-68
2022/11/17 08:46:37;;;;;;;51.33;36.95;;;;;;;11.41;100.00;99217.94;5091878;28;20024;-69
2022/11/17 08:49:02;;;;;;;58.42;38.55;;;;;;;11.29;100.00;99223.81;5091566;28;20032;-68
2022/11/17 08:51:28;;;;;;;56.75;39.45;;;;;;;11.26;100.00;99221.19;5091856;28;20035;-69
2022/11/17 08:53:55;;;;;;;56.80;38.75;;;;;;;11.28;100.00;99227.25;5072223;28;20040;-68
2022/11/17 08:56:20;;;;;;;60.78;39.53;;;;;;;11.26;100.00;99226.38;5091633;28;20026;-69
2022/11/17 08:58:46;;;;;;;60.75;43.13;;;;;;;11.25;100.00;99228.09;5091211;28;20050;-69
2022/11/17 09:01:17;;;;;;;63.28;41.92;;;;;;;11.11;100.00;99204.63;5091117;28;20032;-69
2022/11/17 09:03:44;;;;;;;65.88;43.88;;;;;;;11.22;100.00;99227.19;5091551;28;20032;-69
2022/11/17 09:06:11;;;;;;;61.58;42.35;;;;;;;11.15;100.00;99214.16;5073289;28;20093;-69
2022/11/17 09:08:37;;;;;;;66.03;42.58;;;;;;;10.95;100.00;99172.56;5091436;28;20549;-69
2022/11/17 09:11:07;;;;;;;60.22;40.65;;;;;;;11.14;100.00;99216.72;5091628;28;20027;-69
2022/11/17 09:13:35;;;;;;;62.72;41.60;;;;;;;11.15;100.00;99213.28;5091306;28;20111;-69
2022/11/17 09:16:05;;;;;;;61.25;42.05;;;;;;;11.08;100.00;99216.63;5091308;28;20028;-69
2022/11/17 09:18:32;;;;;;;60.05;41.60;;;;;;;10.96;100.00;99213.00;5090889;28;20470;-69
2022/11/17 09:20:59;;;;;;;62.25;42.50;;;;;;;11.04;100.00;99222.59;5090959;28;20703;-69
2022/11/17 09:23:25;;;;;;;65.60;44.97;;;;;;;10.97;100.00;99213.91;5091298;28;20047;-69
2022/11/17 09:25:50;;;;;;;71.45;44.47;;;;;;;11.09;100.00;99236.44;5091067;28;20035;-69
2022/11/17 09:28:15;;;;;;;71.82;47.60;;;;;;;11.12;100.00;99234.78;5091192;28;20025;-69
2022/11/17 09:30:41;;;;;;;65.10;43.72;;;;;;;11.23;100.00;99244.41;5091159;28;20125;-69
2022/11/17 09:33:06;;;;;;;67.53;46.55;;;;;;;11.23;100.00;99234.94;5091167;28;20024;-69
2022/11/17 09:35:31;;;;;;;66.70;45.70;;;;;;;11.21;100.00;99256.44;5090956;28;20024;-69
2022/11/17 09:37:59;;;;;;;63.40;42.80;;;;;;;11.21;100.00;99248.69;5091116;28;20024;-69
2022/11/17 09:40:25;;;;;;;64.00;43.13;;;;;;;11.16;100.00;99249.50;5088288;28;20749;-69
2022/11/17 09:42:50;;;;;;;67.30;44.40;;;;;;;10.78;100.00;99218.78;5090955;28;20020;-69
2022/11/17 09:45:24;;;;;;;66.18;44.42;;;;;;;10.97;100.00;99260.38;5090895;28;20111;-68
2022/11/17 09:47:57;;;;;;;69.00;46.78;;;;;;;10.94;100.00;99260.31;5077279;28;20111;-69
2022/11/17 09:50:27;;;;;;;70.28;46.42;;;;;;;10.86;100.00;99259.34;5078744;28;20032;-69
2022/11/17 09:52:56;;;;;;;71.80;47.72;;;;;;;10.85;100.00;99266.19;5081412;28;20077;-69
2022/11/17 09:55:25;;;;;;;77.32;50.70;;;;;;;10.81;100.00;99267.00;5085747;28;20024;-68
2022/11/17 09:58:07;;;;;;;79.07;52.43;;;;;;;10.81;100.00;99270.44;5085036;28;20028;-69
2022/11/17 10:00:35;;;;;;;68.45;44.35;;;;;;;10.71;100.00;99273.72;5081186;28;20703;-69
2022/11/17 10:03:01;;;;;;;67.78;45.10;;;;;;;10.61;100.00;99285.59;5063133;28;20032;-69
2022/11/17 10:05:33;;;;;;;71.47;46.05;;;;;;;10.47;100.00;99266.44;5079716;28;20047;-69
2022/11/17 10:08:07;;;;;;;70.75;47.40;;;;;;;10.47;100.00;99261.28;5078947;28;20021;-69
2022/11/17 10:10:41;;;;;;;77.57;48.55;;;;;;;10.62;100.00;99284.75;5079377;28;20024;-68
2022/11/17 10:13:29;;;;;;;74.13;46.47;;;;;;;10.60;100.00;99276.09;5081095;28;20095;-68
2022/11/17 10:16:03;;;;;;;68.15;45.00;;;;;;;10.63;100.00;99283.91;5064572;28;20044;-69
2022/11/17 10:18:35;;;;;;;79.65;48.85;;;;;;;10.44;100.00;99250.88;5086033;28;20024;-68
2022/11/17 10:21:01;;;;;;;75.18;45.40;;;;;;;10.64;100.00;99289.94;5081868;28;20123;-69
2022/11/17 10:23:33;;;;;;;80.40;50.70;;;;;;;10.64;100.00;99282.19;5090041;28;20028;-69
2022/11/17 10:25:59;;;;;;;76.10;50.63;;;;;;;10.69;100.00;99272.81;5087013;28;20062;-69
2022/11/17 10:28:30;;;;;;;77.38;50.17;;;;;;;10.72;100.00;99274.63;5089472;28;20048;-69
2022/11/17 10:30:59;;;;;;;73.57;47.20;;;;;;;10.79;100.00;99267.00;5089905;28;20118;-69
2022/11/17 10:33:41;;;;;;;79.53;49.60;;;;;;;10.80;100.00;99266.16;5089958;28;20059;-68
2022/11/17 10:36:29;;;;;;;75.72;48.08;;;;;;;10.88;100.00;99258.53;5088227;28;20012;-69
2022/11/17 10:38:59;;;;;;;76.00;48.97;;;;;;;10.93;100.00;99250.81;5070498;28;20505;-69
2022/11/17 10:41:29;;;;;;;77.93;52.78;;;;;;;10.96;100.00;99249.16;5089670;28;20084;-69
2022/11/17 10:44:21;;;;;;;78.57;51.00;;;;;;;11.03;100.00;99251.84;5089727;28;20136;-69
2022/11/17 10:47:02;;;;;;;73.55;47.97;;;;;;;11.03;100.00;99252.72;5088067;28;20024;-68
2022/11/17 10:49:36;;;;;;;69.22;46.85;;;;;;;10.98;100.00;99246.63;5088215;28;20028;-69
2022/11/17 10:52:08;;;;;;;68.30;46.05;;;;;;;10.91;100.00;99245.66;5087153;28;20020;-69
2022/11/17 10:54:33;;;;;;;70.13;45.15;;;;;;;10.88;100.00;99221.50;5090228;28;20461;-69
2022/11/17 10:57:00;;;;;;;64.63;42.53;;;;;;;10.87;100.00;99209.44;5091842;28;20034;-69
2022/11/17 10:59:42;;;;;;;67.47;42.78;;;;;;;10.67;100.00;99177.28;5090199;28;20365;-69
2022/11/17 11:02:35;;;;;;;68.65;44.60;;;;;;;10.83;100.00;99198.19;5087143;28;20490;-68
2022/11/17 11:05:04;;;;;;;67.55;44.83;;;;;;;10.78;100.00;99190.38;5007547;28;20185;-68
2022/11/17 11:07:29;;;;;;;69.53;45.13;;;;;;;10.72;100.00;99184.25;5009897;28;20471;-68
2022/11/17 11:09:54;;;;;;;75.53;47.50;;;;;;;10.79;100.00;99196.41;5016425;28;20042;-69
2022/11/17 11:12:37;;;;;;;82.05;52.33;;;;;;;10.77;100.00;99201.53;5027477;28;20034;-72
2022/11/17 11:15:08;;;;;;;80.72;49.17;;;;;;;10.79;100.00;99217.06;4997824;28;20033;-72
2022/11/17 11:17:33;;;;;;;91.30;58.63;;;;;;;10.58;100.00;99189.19;5012524;28;20030;-70
2022/11/17 11:19:59;;;;;;;85.05;54.35;;;;;;;10.89;100.00;99236.13;5018670;28;20471;-70
2022/11/17 11:22:36;;;;;;;75.28;49.38;;;;;;;10.92;100.00;99239.63;5010334;28;20136;-69
2022/11/17 11:25:33;;;;;;;92.65;61.50;;;;;;;11.00;100.00;99247.50;5010613;28;20030;-68
2022/11/17 11:28:17;;;;;;;73.32;50.45;;;;;;;10.71;100.00;99198.00;4998821;28;20038;-73
2022/11/17 11:30:58;;;;;;;75.95;49.65;;;;;;;11.08;100.00;99240.75;5010298;28;20498;-69
2022/11/17 11:33:33;;;;;;;75.47;50.28;;;;;;;11.25;100.00;99237.53;5010545;28;20092;-68
2022/11/17 11:36:14;;;;;;;74.35;48.55;;;;;;;11.16;100.00;99253.78;5010242;28;20034;-68
2022/11/17 11:38:47;;;;;;;74.35;49.20;;;;;;;11.12;100.00;99255.44;5010174;28;20084;-72
2022/11/17 11:41:28;;;;;;;68.03;46.40;;;;;;;11.07;100.00;99259.66;5031549;28;20409;-72
2022/11/17 11:44:05;;;;;;;69.70;48.50;;;;;;;11.13;100.00;99246.00;5091386;28;20028;-70
2022/11/17 11:46:36;;;;;;;72.43;46.97;;;;;;;11.26;100.00;99237.56;5092856;28;20032;-71
2022/11/17 11:49:27;;;;;;;71.00;47.28;;;;;;;11.33;100.00;99225.59;5092420;28;20117;-69
2022/11/17 11:51:53;;;;;;;73.95;48.72;;;;;;;11.49;100.00;99219.78;5092190;28;20492;-68